Time;durP1;ratioP1;P1;durP2;ratioP2;P2;SDS_P1;SDS_P2;PMS_P1;PMS_P2;Temp;Humidity;BMP_temperature;BMP_pressure;BME280_temperature;BME280_humidity;BME280_pressure;Samples;Min_cycle;Max_cycle;Signal;HPM_P1;HPM_P2
2023/09/08 00:02:11;;;;;;;48.80;8.70;;;15.90;1.00;;;;;;5010382;28;20991;-80
2023/09/08 00:04:45;;;;;;;54.23;9.33;;;15.90;1.00;;;;;;4996582;28;20414;-80
2023/09/08 00:07:15;;;;;;;52.77;9.10;;;15.90;1.00;;;;;;4998352;28;20614;-80
2023/09/08 00:09:45;;;;;;;51.00;9.37;;;15.90;1.00;;;;;;5005208;28;20432;-80
2023/09/08 00:12:16;;;;;;;54.80;9.63;;;15.90;1.00;;;;;;4995448;28;20446;-80
2023/09/08 00:14:42;;;;;;;54.37;8.77;;;15.90;1.00;;;;;;4994283;28;20500;-80
2023/09/08 00:17:15;;;;;;;53.93;9.57;;;15.90;1.00;;;;;;4996447;28;20400;-80
2023/09/08 00:19:45;;;;;;;55.47;9.60;;;15.80;1.00;;;;;;4996100;28;20512;-80
2023/09/08 00:22:15;;;;;;;50.70;8.67;;;15.80;1.00;;;;;;4995413;28;20450;-80
2023/09/08 00:24:45;;;;;;;52.83;8.77;;;15.80;1.00;;;;;;4992304;28;20936;-80
2023/09/08 00:27:15;;;;;;;48.73;8.40;;;15.80;1.00;;;;;;4994660;28;20985;-80
2023/09/08 00:29:51;;;;;;;50.50;9.00;;;15.80;1.00;;;;;;4995767;28;20983;-80
2023/09/08 00:32:27;;;;;;;47.90;9.13;;;15.70;1.00;;;;;;4995094;28;20871;-80
2023/09/08 00:35:06;;;;;;;49.63;8.93;;;15.70;1.00;;;;;;4993377;28;20967;-80
2023/09/08 00:37:40;;;;;;;51.13;9.43;;;15.60;1.00;;;;;;4995898;28;20428;-80
2023/09/08 00:40:10;;;;;;;49.67;8.83;;;15.60;1.00;;;;;;4995870;28;20445;-80
2023/09/08 00:42:46;;;;;;;50.30;8.80;;;15.60;1.00;;;;;;4989389;28;20458;-80
2023/09/08 00:45:16;;;;;;;51.07;8.50;;;15.60;1.00;;;;;;4992110;28;20540;-80
2023/09/08 00:47:45;;;;;;;51.50;9.30;;;15.50;1.00;;;;;;4988286;28;20387;-80
2023/09/08 00:50:11;;;;;;;53.83;9.30;;;15.50;1.00;;;;;;5009808;28;20461;-81
2023/09/08 00:52:45;;;;;;;58.00;8.80;;;15.50;1.00;;;;;;4988181;28;20825;-80
2023/09/08 00:55:11;;;;;;;49.70;8.17;;;15.50;1.00;;;;;;4997648;28;20444;-80
2023/09/08 00:57:45;;;;;;;70.17;9.00;;;15.50;1.00;;;;;;4995373;28;20429;-80
2023/09/08 01:00:12;;;;;;;51.40;9.83;;;15.50;1.00;;;;;;4995083;28;20403;-80
2023/09/08 01:03:09;;;;;;;58.87;10.40;;;15.40;1.00;;;;;;4993857;28;20430;-80
2023/09/08 01:05:57;;;;;;;61.40;9.00;;;15.40;1.00;;;;;;4994420;28;20419;-80
2023/09/08 01:08:51;;;;;;;51.97;9.43;;;15.40;1.00;;;;;;4984628;28;20761;-80
2023/09/08 01:11:22;;;;;;;54.87;9.30;;;15.40;1.00;;;;;;5027990;28;20883;-80
2023/09/08 01:13:57;;;;;;;54.87;9.33;;;15.30;1.00;;;;;;4992965;28;20914;-80
2023/09/08 01:16:33;;;;;;;61.37;8.87;;;15.30;1.00;;;;;;4993487;28;20404;-81
2023/09/08 01:18:59;;;;;;;62.30;10.47;;;15.30;1.00;;;;;;4996392;28;20419;-80
2023/09/08 01:21:53;;;;;;;53.20;8.70;;;15.30;1.00;;;;;;4995809;28;20462;-80
2023/09/08 01:25:15;;;;;;;54.50;9.13;;;15.30;1.00;;;;;;4984424;28;20417;-80
2023/09/08 01:28:00;;;;;;;52.87;9.13;;;15.20;1.00;;;;;;4975671;28;20485;-80
2023/09/08 01:30:29;;;;;;;53.47;9.63;;;15.20;1.00;;;;;;4992890;28;20850;-80
2023/09/08 01:33:10;;;;;;;52.73;9.33;;;15.20;1.00;;;;;;4994643;28;20794;-80
2023/09/08 01:35:38;;;;;;;52.50;9.40;;;15.20;1.00;;;;;;4990288;28;20452;-81
2023/09/08 01:38:09;;;;;;;56.40;9.90;;;15.10;1.00;;;;;;4975526;28;20395;-81
2023/09/08 01:40:39;;;;;;;60.77;9.73;;;15.10;1.00;;;;;;4990588;28;20400;-81
2023/09/08 01:43:15;;;;;;;53.50;9.20;;;15.10;1.00;;;;;;4991415;28;20436;-81
2023/09/08 01:45:41;;;;;;;52.50;9.60;;;15.20;1.00;;;;;;4992515;28;20939;-82
2023/09/08 01:48:27;;;;;;;49.33;9.47;;;15.10;1.00;;;;;;5002534;28;20519;-81
2023/09/08 01:51:03;;;;;;;53.50;9.30;;;15.20;1.00;;;;;;4993410;28;20198;-80
2023/09/08 01:53:39;;;;;;;49.23;8.87;;;15.20;1.00;;;;;;4990039;28;20409;-80
2023/09/08 01:56:22;;;;;;;47.50;8.77;;;15.20;1.00;;;;;;4987901;28;20418;-81
2023/09/08 01:59:33;;;;;;;50.03;9.53;;;15.20;1.00;;;;;;4992418;28;20407;-80
2023/09/08 02:02:04;;;;;;;57.63;10.83;;;15.20;1.00;;;;;;4993666;28;20490;-80
2023/09/08 02:04:30;;;;;;;49.70;9.23;;;15.10;1.00;;;;;;4982082;28;20430;-80
2023/09/08 02:06:55;;;;;;;51.10;9.20;;;15.10;1.00;;;;;;5002176;28;20420;-80
2023/09/08 02:09:21;;;;;;;56.30;9.33;;;15.10;1.00;;;;;;4995652;28;20202;-79
2023/09/08 02:11:47;;;;;;;59.90;10.60;;;15.10;1.00;;;;;;4991257;28;20186;-80
2023/09/08 02:14:33;;;;;;;53.90;9.33;;;15.10;1.00;;;;;;4988551;28;20229;-80
2023/09/08 02:16:59;;;;;;;48.90;9.80;;;15.10;1.00;;;;;;4982300;28;20253;-80
2023/09/08 02:19:27;;;;;;;54.77;10.00;;;15.10;1.00;;;;;;4990187;28;20921;-80
2023/09/08 02:21:53;;;;;;;61.00;9.77;;;15.10;1.00;;;;;;4993269;28;20551;-80
2023/09/08 02:24:21;;;;;;;51.87;10.30;;;15.10;1.00;;;;;;4993383;28;20469;-80
2023/09/08 02:26:57;;;;;;;53.50;9.67;;;15.10;1.00;;;;;;5016658;28;20523;-80
2023/09/08 02:29:28;;;;;;;49.10;9.63;;;15.10;1.00;;;;;;4985960;28;20446;-80
2023/09/08 02:31:57;;;;;;;55.73;10.43;;;15.10;1.00;;;;;;4997705;28;20403;-80
2023/09/08 02:34:27;;;;;;;54.10;9.97;;;15.10;1.00;;;;;;4995945;28;20430;-80
2023/09/08 02:36:57;;;;;;;52.23;9.80;;;15.10;1.00;;;;;;4993369;28;20919;-81
2023/09/08 02:39:34;;;;;;;52.20;10.13;;;15.10;1.00;;;;;;4999210;28;20474;-81
2023/09/08 02:45:21;;;;;;;49.17;9.20;;;15.00;1.00;;;;;;4993093;28;20386;-81
2023/09/08 02:47:47;;;;;;;52.70;10.40;;;15.00;1.00;;;;;;4992413;28;20430;-82
2023/09/08 02:50:13;;;;;;;48.83;9.73;;;15.10;1.00;;;;;;4993396;28;20570;-81
2023/09/08 02:52:38;;;;;;;51.20;9.20;;;15.10;1.00;;;;;;5000705;28;20281;-81
2023/09/08 02:55:04;;;;;;;57.13;10.47;;;15.10;1.00;;;;;;4989885;28;20185;-81
2023/09/08 02:57:30;;;;;;;52.37;10.07;;;15.00;1.00;;;;;;4989265;28;20186;-81
2023/09/08 02:59:56;;;;;;;56.33;10.67;;;15.00;1.00;;;;;;4991493;28;20186;-81
2023/09/08 03:02:24;;;;;;;53.33;10.67;;;15.00;1.00;;;;;;4992810;28;20644;-81
2023/09/08 03:04:50;;;;;;;54.30;10.40;;;15.00;1.00;;;;;;4991855;28;20437;-81
2023/09/08 03:07:21;;;;;;;52.83;10.50;;;15.10;1.00;;;;;;4989573;28;20921;-81
2023/09/08 03:09:47;;;;;;;54.57;9.70;;;15.10;1.00;;;;;;4991080;28;20438;-81
2023/09/08 03:12:15;;;;;;;60.53;11.00;;;15.10;1.00;;;;;;4992740;28;20417;-81
2023/09/08 03:14:41;;;;;;;54.57;10.33;;;15.10;1.00;;;;;;4984440;28;20778;-81
2023/09/08 03:17:09;;;;;;;50.20;9.40;;;15.10;1.00;;;;;;4991186;28;20407;-81
2023/09/08 03:19:46;;;;;;;49.60;9.90;;;15.00;1.00;;;;;;4993079;28;20253;-81
2023/09/08 03:22:33;;;;;;;54.30;9.80;;;15.00;1.00;;;;;;5001426;28;20413;-81
2023/09/08 03:24:59;;;;;;;49.27;9.13;;;15.00;1.00;;;;;;4993895;28;20396;-81
2023/09/08 03:27:51;;;;;;;48.90;9.80;;;15.00;1.00;;;;;;5015308;28;20411;-81
2023/09/08 03:30:21;;;;;;;54.30;9.47;;;15.00;1.00;;;;;;4990950;28;20202;-81
2023/09/08 03:33:09;;;;;;;48.77;9.33;;;15.00;1.00;;;;;;4993165;28;20403;-82
2023/09/08 03:39:15;;;;;;;49.33;9.30;;;15.00;1.00;;;;;;4992985;28;20434;-80
2023/09/08 03:45:21;;;;;;;62.93;9.60;;;14.90;1.00;;;;;;4996077;28;20411;-81
2023/09/08 03:48:39;;;;;;;46.77;9.13;;;14.90;1.00;;;;;;4982755;28;20453;-80
2023/09/08 03:51:09;;;;;;;49.93;9.10;;;14.80;1.00;;;;;;4994769;28;20414;-80
2023/09/08 03:53:35;;;;;;;51.27;10.37;;;14.80;1.00;;;;;;4996028;28;20444;-80
2023/09/08 03:56:15;;;;;;;51.83;9.70;;;14.80;1.00;;;;;;5017473;28;21087;-80
2023/09/08 03:59:21;;;;;;;48.20;9.40;;;14.80;1.00;;;;;;4996213;28;20178;-80
2023/09/08 04:08:30;;;;;;;53.97;8.70;;;14.70;1.00;;;;;;4996406;28;20385;-84
2023/09/08 04:14:18;;;;;;;56.20;9.90;;;14.60;1.00;;;;;;4985488;28;20541;-83
2023/09/08 04:20:33;;;;;;;50.63;9.43;;;14.60;1.00;;;;;;4992862;28;20288;-84
2023/09/08 04:23:27;;;;;;;49.57;8.37;;;14.50;1.00;;;;;;4996654;28;20375;-85
2023/09/08 04:26:15;;;;;;;51.27;9.00;;;14.50;1.00;;;;;;4988790;28;20388;-85
2023/09/08 04:29:21;;;;;;;49.20;9.40;;;14.50;1.00;;;;;;4994800;28;21204;-85
2023/09/08 04:32:21;;;;;;;50.77;9.23;;;14.50;1.00;;;;;;4995299;28;20415;-85
2023/09/08 04:35:15;;;;;;;46.70;8.40;;;14.50;1.00;;;;;;4994927;28;20425;-85
2023/09/08 04:41:27;;;;;;;54.67;9.70;;;14.50;1.00;;;;;;4989423;28;20909;-85
2023/09/08 04:43:53;;;;;;;53.80;9.60;;;14.50;1.00;;;;;;4991425;28;20407;-86
2023/09/08 04:46:21;;;;;;;54.23;9.83;;;14.40;2.40;;;;;;4991104;28;20442;-84
2023/09/08 04:49:21;;;;;;;50.90;9.47;;;14.50;3.50;;;;;;4994794;28;20465;-85
2023/09/08 04:52:04;;;;;;;54.83;9.83;;;14.50;3.80;;;;;;4995615;28;20432;-85
2023/09/08 04:55:15;;;;;;;53.10;9.90;;;14.50;5.40;;;;;;4986117;28;20383;-86
2023/09/08 04:57:40;;;;;;;53.07;10.20;;;14.50;3.00;;;;;;4996145;28;20395;-85
2023/09/08 05:00:21;;;;;;;54.30;10.00;;;14.50;9.30;;;;;;4992506;28;20431;-85
2023/09/08 05:03:15;;;;;;;50.27;9.40;;;14.50;7.00;;;;;;4999195;28;20232;-85
2023/09/08 05:09:54;;;;;;;53.00;10.20;;;14.70;9.70;;;;;;4983365;28;20490;-85
2023/09/08 05:12:34;;;;;;;62.20;9.93;;;14.60;9.10;;;;;;4992974;28;20940;-85
2023/09/08 05:15:21;;;;;;;50.37;9.77;;;14.70;9.90;;;;;;4994246;28;20418;-85
2023/09/08 05:18:21;;;;;;;51.23;10.03;;;14.70;8.20;;;;;;4994875;28;20530;-84
2023/09/08 05:21:21;;;;;;;52.20;9.80;;;14.70;9.40;;;;;;4990260;28;20456;-84
2023/09/08 05:27:16;;;;;;;53.77;10.30;;;14.70;13.10;;;;;;4991514;28;21012;-86
2023/09/08 05:30:21;;;;;;;56.13;9.67;;;14.80;13.10;;;;;;4989878;28;20465;-87
2023/09/08 05:33:15;;;;;;;51.37;9.83;;;14.90;13.10;;;;;;4994388;28;20403;-87
2023/09/08 05:35:47;;;;;;;56.07;10.10;;;14.90;10.70;;;;;;4995375;28;20404;-86
2023/09/08 05:38:21;;;;;;;50.67;10.60;;;15.00;12.40;;;;;;4993806;28;20429;-86
2023/09/08 05:40:57;;;;;;;51.80;9.80;;;15.00;12.70;;;;;;4994049;28;20429;-85
2023/09/08 05:43:45;;;;;;;52.60;10.60;;;15.00;15.00;;;;;;4993605;28;20501;-85
2023/09/08 05:49:45;;;;;;;58.73;10.60;;;15.20;15.10;;;;;;4975755;28;20423;-86
2023/09/08 05:52:11;;;;;;;56.13;9.80;;;15.20;14.50;;;;;;4989455;28;20444;-85
2023/09/08 05:54:51;;;;;;;55.10;10.30;;;15.30;14.30;;;;;;4993625;28;20404;-84
2023/09/08 05:57:21;;;;;;;55.43;10.53;;;15.30;14.20;;;;;;4992644;28;20594;-84
2023/09/08 06:00:22;;;;;;;49.13;9.47;;;15.40;13.90;;;;;;4993179;28;20426;-85
2023/09/08 06:02:57;;;;;;;61.17;9.97;;;15.50;10.10;;;;;;4972536;28;20408;-84
2023/09/08 06:08:45;;;;;;;50.70;9.10;;;15.60;12.90;;;;;;4994006;28;20466;-85
2023/09/08 06:11:21;;;;;;;61.77;9.80;;;15.60;12.80;;;;;;4993611;28;20434;-84
2023/09/08 06:14:21;;;;;;;55.77;10.13;;;15.70;12.10;;;;;;4993079;28;20458;-84
2023/09/08 06:16:51;;;;;;;55.20;10.20;;;15.80;11.60;;;;;;4993135;28;20503;-83
2023/09/08 06:19:17;;;;;;;58.20;10.33;;;15.90;12.50;;;;;;5006122;28;20810;-83
2023/09/08 06:21:51;;;;;;;52.80;10.23;;;16.00;13.50;;;;;;4993773;28;20435;-85
2023/09/08 06:27:39;;;;;;;50.37;9.83;;;16.20;12.80;;;;;;4984466;28;20404;-84
2023/09/08 06:30:21;;;;;;;54.87;10.73;;;16.30;11.80;;;;;;5006735;28;20463;-85
2023/09/08 06:32:51;;;;;;;51.40;10.20;;;16.40;16.10;;;;;;4990002;28;20399;-85
2023/09/08 06:35:51;;;;;;;55.73;10.33;;;16.50;12.90;;;;;;5000741;28;20396;-84
2023/09/08 06:38:17;;;;;;;60.00;10.33;;;;;;;;;;4989613;28;20443;-84
2023/09/08 06:41:10;;;;;;;51.60;10.20;;;16.80;7.80;;;;;;4978215;28;20413;-84
2023/09/08 06:43:51;;;;;;;59.80;9.73;;;16.90;3.60;;;;;;4994157;28;20406;-84
2023/09/08 06:46:51;;;;;;;53.23;9.20;;;17.10;1.00;;;;;;4990947;28;20909;-84
2023/09/08 06:53:10;;;;;;;49.80;7.90;;;17.40;1.00;;;;;;4991568;28;20426;-83
2023/09/08 06:55:51;;;;;;;46.27;7.40;;;17.50;1.00;;;;;;4977894;28;20486;-86
2023/09/08 06:58:22;;;;;;;47.67;7.30;;;;;;;;;;4993269;28;20427;-85
2023/09/08 07:00:49;;;;;;;49.37;7.83;;;17.80;1.00;;;;;;4992741;28;20434;-84
2023/09/08 07:03:15;;;;;;;53.10;8.10;;;17.90;1.00;;;;;;4985883;28;20444;-85
2023/09/08 07:05:45;;;;;;;47.97;7.00;;;18.10;1.00;;;;;;4991669;28;20453;-85
2023/09/08 07:08:21;;;;;;;59.30;8.10;;;18.20;1.00;;;;;;4995404;28;20640;-86
2023/09/08 07:10:53;;;;;;;49.23;6.90;;;18.40;1.00;;;;;;4997004;28;20451;-83
2023/09/08 07:13:21;;;;;;;47.90;6.80;;;18.50;1.00;;;;;;4996695;28;20463;-82
2023/09/08 07:16:21;;;;;;;44.37;6.90;;;18.60;1.00;;;;;;4995641;28;20391;-82
2023/09/08 07:18:51;;;;;;;47.20;6.80;;;18.80;1.00;;;;;;4995799;28;20432;-82
2023/09/08 07:21:17;;;;;;;45.27;6.83;;;19.00;1.00;;;;;;4996250;28;20507;-82
2023/09/08 07:23:52;;;;;;;45.27;6.40;;;19.10;1.00;;;;;;4997031;28;20413;-81
2023/09/08 07:26:21;;;;;;;42.70;6.50;;;19.20;1.00;;;;;;4991358;28;20197;-81
2023/09/08 07:28:48;;;;;;;45.57;6.87;;;19.30;1.00;;;;;;4993281;28;20462;-81
2023/09/08 07:31:39;;;;;;;42.77;6.23;;;19.50;1.00;;;;;;4995121;28;20455;-81
2023/09/08 07:34:05;;;;;;;47.87;7.27;;;19.60;1.00;;;;;;4996432;28;20433;-81
2023/09/08 07:36:31;;;;;;;43.77;6.00;;;19.80;1.00;;;;;;4996075;28;20444;-81
2023/09/08 07:39:04;;;;;;;47.60;6.13;;;19.90;1.00;;;;;;4996418;28;20184;-81
2023/09/08 07:41:29;;;;;;;41.77;6.27;;;20.00;1.00;;;;;;4996204;28;20450;-82
2023/09/08 07:44:10;;;;;;;44.63;6.23;;;20.10;1.00;;;;;;4994575;28;20436;-81
2023/09/08 07:46:48;;;;;;;47.17;6.00;;;20.30;1.00;;;;;;4990046;28;20438;-81
2023/09/08 07:49:21;;;;;;;40.30;6.07;;;20.50;1.00;;;;;;5003254;28;20898;-81
2023/09/08 07:51:47;;;;;;;50.30;5.73;;;20.60;1.00;;;;;;4988580;28;20447;-81
2023/09/08 07:54:13;;;;;;;41.30;6.00;;;20.70;1.00;;;;;;4988133;28;20441;-82
2023/09/08 07:57:21;;;;;;;40.63;6.07;;;20.80;1.00;;;;;;4995860;28;20188;-91
2023/09/08 08:00:21;;;;;;;43.00;6.00;;;21.00;1.00;;;;;;4992634;28;20488;-92
2023/09/08 08:02:54;;;;;;;40.80;5.87;;;21.10;1.00;;;;;;4995811;28;20433;-91
2023/09/08 08:05:22;;;;;;;42.47;6.03;;;21.20;1.00;;;;;;4995864;28;20424;-91
2023/09/08 08:11:22;;;;;;;38.90;5.40;;;21.40;1.00;;;;;;4997205;28;20529;-82
2023/09/08 08:13:51;;;;;;;44.43;5.97;;;21.60;1.00;;;;;;4996148;28;20395;-81
2023/09/08 08:16:21;;;;;;;41.47;5.93;;;21.70;1.00;;;;;;4994780;28;20417;-81
2023/09/08 08:18:52;;;;;;;41.40;5.50;;;21.80;1.00;;;;;;4993450;28;20468;-82
2023/09/08 08:21:18;;;;;;;43.40;6.20;;;21.80;1.00;;;;;;4993695;28;20449;-81
2023/09/08 08:23:51;;;;;;;40.53;6.27;;;21.90;1.00;;;;;;4994109;28;20437;-82
2023/09/08 08:26:22;;;;;;;41.50;6.60;;;;;;;;;;5013040;28;20217;-81
2023/09/08 08:28:51;;;;;;;54.33;6.37;;;22.10;1.00;;;;;;4994342;28;20456;-82
2023/09/08 08:31:27;;;;;;;41.50;6.00;;;22.20;1.00;;;;;;4995999;28;20513;-82
2023/09/08 08:33:53;;;;;;;41.63;5.67;;;22.40;1.00;;;;;;5013463;28;20444;-83
2023/09/08 08:36:19;;;;;;;42.23;5.60;;;22.50;1.00;;;;;;4994157;28;20427;-82
2023/09/08 08:39:05;;;;;;;40.23;5.87;;;22.60;1.00;;;;;;4998559;28;20180;-82
2023/09/08 08:45:04;;;;;;;47.00;5.93;;;22.80;1.00;;;;;;4994874;28;20421;-92
2023/09/08 08:50:53;;;;;;;43.03;5.57;;;23.10;1.00;;;;;;4996070;28;20451;-91
2023/09/08 08:56:58;;;;;;;43.20;5.77;;;;;;;;;;4995616;28;20435;-92
2023/09/08 09:03:09;;;;;;;42.00;5.73;;;23.40;1.00;;;;;;4990763;28;20845;-92
2023/09/08 09:05:46;;;;;;;41.07;5.60;;;23.40;1.00;;;;;;4995571;28;20883;-92
2023/09/08 09:11:34;;;;;;;51.60;6.80;;;23.80;1.00;;;;;;4984919;28;20475;-82
2023/09/08 09:14:04;;;;;;;43.67;5.80;;;23.80;1.00;;;;;;4991626;28;20950;-82
2023/09/08 09:16:41;;;;;;;38.97;5.20;;;24.00;1.00;;;;;;4994129;28;20171;-82
2023/09/08 09:19:07;;;;;;;43.60;5.47;;;24.10;1.00;;;;;;4992508;28;20510;-82
2023/09/08 09:21:47;;;;;;;39.83;5.10;;;24.20;1.00;;;;;;4981340;28;20463;-82
2023/09/08 09:24:38;;;;;;;40.97;5.50;;;24.40;1.00;;;;;;4998305;28;20189;-82
2023/09/08 09:27:11;;;;;;;40.00;5.27;;;24.50;1.00;;;;;;4982203;28;20433;-82
2023/09/08 09:29:48;;;;;;;38.57;5.03;;;24.50;1.00;;;;;;4986674;28;20468;-82
2023/09/08 09:32:34;;;;;;;45.73;5.10;;;24.60;1.00;;;;;;4994128;28;20455;-82
2023/09/08 09:35:45;;;;;;;39.37;5.00;;;24.70;1.00;;;;;;4994573;28;20438;-82
2023/09/08 09:38:19;;;;;;;38.23;5.17;;;;;;;;;;4993124;28;20431;-82
2023/09/08 09:40:51;;;;;;;39.30;5.00;;;24.90;1.00;;;;;;4994194;28;21467;-82
2023/09/08 09:43:25;;;;;;;39.57;5.30;;;25.00;1.00;;;;;;4993675;28;20431;-83
2023/09/08 09:46:45;;;;;;;43.40;4.97;;;25.10;1.00;;;;;;4997457;28;20459;-84
2023/09/08 09:49:23;;;;;;;41.53;5.30;;;25.20;1.00;;;;;;4990449;28;20461;-82
2023/09/08 09:51:53;;;;;;;39.40;6.13;;;25.20;1.00;;;;;;4981539;28;20438;-82
2023/09/08 09:54:34;;;;;;;39.73;5.00;;;25.30;1.00;;;;;;4994235;28;20833;-82
2023/09/08 09:57:45;;;;;;;38.57;5.13;;;25.40;1.00;;;;;;4994774;28;20506;-90
2023/09/08 10:10:17;;;;;;;39.27;5.03;;;25.90;1.00;;;;;;4987347;28;20523;-91
2023/09/08 10:13:21;;;;;;;38.83;5.20;;;26.00;1.00;;;;;;4995062;28;20428;-92
2023/09/08 10:19:10;;;;;;;39.60;5.60;;;26.20;1.00;;;;;;4994676;28;20433;-95
2023/09/08 10:22:00;;;;;;;38.93;4.73;;;26.20;1.00;;;;;;4993732;28;20429;-92
2023/09/08 10:24:50;;;;;;;38.27;5.60;;;26.30;1.00;;;;;;4993511;28;20529;-82
2023/09/08 10:27:53;;;;;;;43.13;5.60;;;26.40;1.00;;;;;;4991692;28;20431;-82
2023/09/08 10:30:46;;;;;;;40.70;5.30;;;26.50;1.00;;;;;;4986731;28;20978;-82
2023/09/08 10:33:29;;;;;;;39.00;5.53;;;26.60;1.00;;;;;;4993397;28;21055;-82
2023/09/08 10:36:28;;;;;;;40.47;5.30;;;26.70;1.00;;;;;;4993804;28;20413;-82
2023/09/08 10:38:56;;;;;;;37.37;5.20;;;26.80;1.00;;;;;;4990934;28;20440;-82
2023/09/08 10:41:23;;;;;;;41.33;5.20;;;26.90;1.00;;;;;;4991926;28;20492;-82
2023/09/08 10:44:09;;;;;;;37.47;5.23;;;27.00;1.00;;;;;;4994140;28;20766;-82
2023/09/08 10:46:37;;;;;;;37.20;5.13;;;27.00;1.00;;;;;;4993990;28;20437;-82
2023/09/08 10:49:10;;;;;;;39.10;4.80;;;27.00;1.00;;;;;;4997211;28;20595;-82
2023/09/08 10:51:48;;;;;;;37.43;5.23;;;27.10;1.00;;;;;;4997153;28;20435;-82
2023/09/08 10:54:43;;;;;;;37.10;5.20;;;27.10;1.00;;;;;;4995666;28;20436;-82
2023/09/08 10:57:24;;;;;;;38.20;5.23;;;27.20;1.00;;;;;;4985830;28;20430;-82
2023/09/08 11:00:23;;;;;;;38.10;4.60;;;27.30;1.00;;;;;;4997107;28;20429;-82
2023/09/08 11:02:52;;;;;;;37.07;5.10;;;27.40;1.00;;;;;;4993534;28;20869;-82
2023/09/08 11:05:19;;;;;;;39.73;4.67;;;27.50;1.00;;;;;;4993999;28;20435;-82
2023/09/08 11:07:57;;;;;;;38.80;5.07;;;27.60;1.00;;;;;;5005897;28;20429;-83
2023/09/08 11:11:03;;;;;;;40.10;4.90;;;27.70;1.00;;;;;;4997191;28;20585;-82
2023/09/08 11:14:03;;;;;;;37.80;5.00;;;27.70;1.00;;;;;;4972962;28;20517;-82
2023/09/08 11:23:39;;;;;;;38.50;5.10;;;28.00;1.00;;;;;;4969755;28;20800;-88
2023/09/08 11:26:40;;;;;;;38.97;5.57;;;28.10;1.00;;;;;;4973827;28;20452;-88
2023/09/08 11:29:57;;;;;;;44.80;6.20;;;28.30;1.00;;;;;;5005067;28;20471;-87
2023/09/08 11:32:42;;;;;;;36.37;4.97;;;28.40;1.00;;;;;;4989210;28;20474;-83
2023/09/08 11:35:10;;;;;;;37.27;5.30;;;28.50;1.00;;;;;;5000045;28;20441;-84
2023/09/08 11:37:41;;;;;;;38.80;5.27;;;28.50;1.00;;;;;;4980263;28;20923;-83
2023/09/08 11:40:12;;;;;;;38.27;5.37;;;28.60;1.00;;;;;;4975790;28;20921;-83
2023/09/08 11:42:43;;;;;;;37.73;5.13;;;28.60;1.00;;;;;;4976947;28;20437;-83
2023/09/08 11:45:27;;;;;;;39.13;5.10;;;28.70;1.00;;;;;;4984186;28;20447;-84
2023/09/08 11:47:58;;;;;;;40.63;5.77;;;28.70;1.00;;;;;;4976860;28;20510;-85
2023/09/08 11:50:27;;;;;;;39.10;4.93;;;28.70;1.00;;;;;;4984860;28;20488;-80
2023/09/08 11:53:04;;;;;;;37.90;4.90;;;28.80;1.00;;;;;;4970095;28;20920;-81
2023/09/08 11:55:51;;;;;;;37.93;5.80;;;28.80;1.00;;;;;;4971001;28;20432;-81
2023/09/08 11:58:19;;;;;;;39.57;5.83;;;29.00;1.00;;;;;;4974503;28;20516;-80
2023/09/08 12:01:04;;;;;;;42.33;5.03;;;29.00;1.00;;;;;;4987960;28;20450;-85
2023/09/08 12:04:00;;;;;;;40.73;4.90;;;29.10;1.00;;;;;;4975787;28;20528;-86
2023/09/08 12:06:57;;;;;;;42.10;5.27;;;29.10;1.00;;;;;;4944665;29;20521;-86
2023/09/08 12:09:45;;;;;;;42.70;5.90;;;29.20;1.00;;;;;;4958988;28;20464;-86
2023/09/08 12:12:13;;;;;;;36.57;5.33;;;29.10;1.00;;;;;;4952214;28;20528;-86
2023/09/08 12:15:21;;;;;;;38.57;5.67;;;29.20;1.00;;;;;;4955488;29;20449;-85
2023/09/08 12:17:48;;;;;;;38.70;5.33;;;29.20;1.00;;;;;;4959566;28;20449;-82
2023/09/08 12:20:16;;;;;;;42.20;5.20;;;29.20;1.00;;;;;;4960621;28;20468;-82
2023/09/08 12:22:52;;;;;;;42.17;4.90;;;29.30;1.00;;;;;;4961714;28;20804;-81
2023/09/08 12:25:34;;;;;;;36.13;5.07;;;29.40;1.00;;;;;;4955288;29;20518;-81
2023/09/08 12:28:04;;;;;;;46.43;5.50;;;29.40;1.00;;;;;;4963627;28;20884;-81
2023/09/08 12:30:46;;;;;;;36.80;5.40;;;29.50;1.00;;;;;;4958640;28;20474;-83
2023/09/08 12:33:39;;;;;;;37.20;5.00;;;29.60;1.00;;;;;;4959945;28;20426;-84
2023/09/08 12:36:27;;;;;;;36.60;4.93;;;29.70;1.00;;;;;;4955223;29;20430;-83
2023/09/08 12:39:04;;;;;;;51.93;5.20;;;29.80;1.00;;;;;;4944955;28;20442;-82
2023/09/08 12:41:39;;;;;;;36.87;5.00;;;29.80;1.00;;;;;;4957463;28;20525;-84
2023/09/08 12:44:10;;;;;;;37.70;5.70;;;29.90;1.00;;;;;;4973234;28;20437;-83
2023/09/08 12:46:57;;;;;;;37.47;4.67;;;30.00;1.00;;;;;;4975005;28;20826;-83
2023/09/08 12:49:27;;;;;;;39.20;4.70;;;30.00;1.00;;;;;;4974654;28;20496;-83
2023/09/08 12:51:58;;;;;;;37.87;5.20;;;30.10;1.00;;;;;;4976152;28;20955;-82
2023/09/08 12:54:39;;;;;;;37.40;5.27;;;30.20;1.00;;;;;;4975738;28;20433;-81
2023/09/08 12:57:11;;;;;;;38.03;5.47;;;30.20;1.00;;;;;;4971442;28;20429;-82
2023/09/08 12:59:51;;;;;;;37.00;4.80;;;30.20;1.00;;;;;;4976019;28;20481;-83
2023/09/08 13:02:17;;;;;;;37.10;4.90;;;30.40;1.00;;;;;;4975014;28;20445;-81
2023/09/08 13:04:58;;;;;;;36.67;4.50;;;30.40;1.00;;;;;;4974737;28;20433;-82
2023/09/08 13:07:28;;;;;;;39.37;4.63;;;30.50;1.00;;;;;;4973938;28;20657;-83
2023/09/08 13:09:55;;;;;;;36.43;5.10;;;30.50;1.00;;;;;;4987176;28;20462;-84
2023/09/08 13:12:21;;;;;;;37.23;4.60;;;30.60;1.00;;;;;;4973784;28;20446;-82
2023/09/08 13:15:15;;;;;;;37.70;4.73;;;30.60;1.00;;;;;;4968826;28;20426;-82
2023/09/08 13:18:03;;;;;;;36.67;5.07;;;30.70;1.00;;;;;;4975955;28;20186;-90
2023/09/08 13:21:21;;;;;;;41.37;4.43;;;30.60;1.00;;;;;;4975744;28;20429;-90
2023/09/08 13:27:47;;;;;;;34.30;4.10;;;30.60;1.00;;;;;;4967452;28;20590;-88
2023/09/08 13:33:39;;;;;;;35.50;3.93;;;30.80;1.00;;;;;;4975293;28;20923;-87
2023/09/08 13:42:49;;;;;;;34.00;3.73;;;31.00;1.00;;;;;;4970372;28;20469;-88
2023/09/08 13:45:34;;;;;;;37.53;4.10;;;31.00;1.00;;;;;;4974232;28;20836;-87
2023/09/08 13:48:33;;;;;;;35.97;4.17;;;31.00;1.00;;;;;;4985033;28;20663;-88
2023/09/08 13:54:45;;;;;;;36.00;4.27;;;31.10;1.00;;;;;;4968649;28;20774;-88
2023/09/08 13:57:29;;;;;;;35.30;4.40;;;31.10;1.00;;;;;;4975630;28;20406;-88
2023/09/08 14:03:51;;;;;;;38.43;4.67;;;31.00;1.00;;;;;;4958018;28;20454;-84
2023/09/08 14:06:45;;;;;;;37.10;4.50;;;31.00;1.00;;;;;;4970977;28;20453;-83
2023/09/08 14:09:27;;;;;;;35.27;4.43;;;31.00;1.00;;;;;;4989450;28;20461;-83
2023/09/08 14:11:58;;;;;;;37.07;4.80;;;30.90;1.00;;;;;;4973959;28;20460;-84
2023/09/08 14:14:24;;;;;;;36.43;4.47;;;30.90;1.00;;;;;;4974523;28;20434;-85
2023/09/08 14:20:11;;;;;;;35.17;4.60;;;;;;;;;;4968110;28;20396;-88
2023/09/08 14:22:45;;;;;;;34.70;5.10;;;31.00;1.00;;;;;;4974377;28;20433;-87
2023/09/08 14:25:45;;;;;;;35.80;4.67;;;31.00;1.00;;;;;;4980329;28;20975;-88
2023/09/08 14:28:11;;;;;;;36.87;4.50;;;31.10;1.00;;;;;;4970843;28;20429;-87
2023/09/08 14:30:46;;;;;;;35.20;4.70;;;31.10;1.00;;;;;;4973928;28;20462;-87
2023/09/08 14:36:33;;;;;;;36.80;5.20;;;;;;;;;;4972958;28;20413;-88
2023/09/08 14:39:45;;;;;;;36.20;4.17;;;31.30;1.00;;;;;;4975277;28;20500;-88
2023/09/08 14:46:15;;;;;;;34.80;4.80;;;31.30;1.00;;;;;;4971497;28;20417;-88
2023/09/08 14:52:03;;;;;;;40.47;4.47;;;31.20;1.00;;;;;;4974526;28;20413;-87
2023/09/08 14:54:51;;;;;;;39.67;4.70;;;31.30;1.00;;;;;;4973999;28;20476;-87
2023/09/08 14:57:17;;;;;;;36.93;4.53;;;31.30;1.00;;;;;;4989312;28;20464;-88
2023/09/08 14:59:59;;;;;;;34.40;4.40;;;31.50;1.00;;;;;;4974015;28;20425;-88
2023/09/08 15:02:40;;;;;;;33.90;4.63;;;32.20;1.00;;;;;;4974297;28;20438;-87
2023/09/08 15:05:06;;;;;;;40.10;4.70;;;33.30;1.00;;;;;;4975231;28;20441;-88
2023/09/08 15:08:09;;;;;;;35.07;4.53;;;34.50;1.00;;;;;;4972585;28;20948;-88
2023/09/08 15:10:40;;;;;;;35.33;9.77;;;35.90;1.00;;;;;;4974736;28;20461;-88
2023/09/08 15:13:22;;;;;;;34.63;3.87;;;37.50;1.00;;;;;;4973645;28;20925;-88
2023/09/08 15:16:38;;;;;;;31.93;3.97;;;38.70;1.00;;;;;;4973065;28;20434;-88
2023/09/08 15:22:26;;;;;;;31.20;3.80;;;41.00;1.00;;;;;;4980535;28;20416;-88
2023/09/08 15:25:04;;;;;;;30.03;3.57;;;42.50;1.00;;;;;;4974647;28;20904;-89
2023/09/08 15:27:52;;;;;;;30.40;3.87;;;42.60;1.00;;;;;;4969441;28;20187;-89
2023/09/08 15:30:22;;;;;;;26.17;2.90;;;43.20;1.00;;;;;;4993069;28;20465;-89
2023/09/08 15:33:05;;;;;;;29.43;3.30;;;43.70;1.00;;;;;;4971982;28;20548;-89
2023/09/08 15:35:34;;;;;;;29.17;3.00;;;45.10;1.00;;;;;;4977037;28;20436;-85
2023/09/08 15:38:03;;;;;;;26.10;3.33;;;44.50;1.00;;;;;;4975917;28;20465;-87
2023/09/08 15:40:34;;;;;;;26.10;3.20;;;44.80;1.00;;;;;;4976022;28;20445;-88
2023/09/08 15:43:04;;;;;;;26.03;3.20;;;45.00;1.00;;;;;;4976428;28;20983;-85
2023/09/08 15:45:51;;;;;;;26.20;3.03;;;45.30;1.00;;;;;;4975750;28;20437;-81
2023/09/08 15:48:27;;;;;;;24.47;2.93;;;45.60;1.00;;;;;;4977371;28;20421;-82
2023/09/08 15:51:05;;;;;;;30.33;3.40;;;45.40;1.00;;;;;;4966679;28;20476;-86
2023/09/08 15:53:46;;;;;;;29.17;3.10;;;45.40;1.00;;;;;;4977417;28;20422;-79